createdAt,value
2019-04-21T00:00:35.536Z,75.55
2019-04-21T00:03:15.210Z,90.20
2019-04-21T00:06:07.565Z,105.27
2019-04-21T00:08:48.466Z,87.15
2019-04-21T00:11:11.126Z,79.37
2019-04-21T00:13:33.129Z,79.65
2019-04-21T00:16:02.387Z,64.58
2019-04-21T00:18:46.454Z,65.57
2019-04-21T00:21:25.530Z,75.00
2019-04-21T00:24:00.368Z,71.28
2019-04-21T00:26:42.906Z,63.52
2019-04-21T00:29:19.273Z,84.17
2019-04-21T00:31:41.935Z,63.23
2019-04-21T00:34:02.580Z,70.00
2019-04-21T00:36:47.111Z,77.17
2019-04-21T00:39:36.478Z,77.90
2019-04-21T00:42:08.629Z,78.47
2019-04-21T00:44:29.484Z,96.55
2019-04-21T00:47:08.458Z,94.05
2019-04-21T00:49:45.360Z,82.30
2019-04-21T00:52:43.684Z,81.65
2019-04-21T00:55:14.033Z,70.50
2019-04-21T00:57:38.870Z,81.63
2019-04-21T01:00:16.130Z,112.70
2019-04-21T01:05:16.688Z,78.78
2019-04-21T01:07:48.009Z,141.37
2019-04-21T01:10:15.008Z,119.28
2019-04-21T01:12:56.102Z,124.20
2019-04-21T01:15:38.613Z,119.82
2019-04-21T01:18:06.369Z,116.45
2019-04-21T01:20:17.928Z,55.78
2019-04-21T01:22:49.824Z,46.60
2019-04-21T01:25:30.194Z,46.13
2019-04-21T01:28:15.135Z,43.80
2019-04-21T01:30:50.347Z,50.00
2019-04-21T01:33:26.267Z,67.30
2019-04-21T01:35:53.713Z,56.02
2019-04-21T01:38:34.315Z,58.85
2019-04-21T01:41:08.037Z,53.00
2019-04-21T01:43:35.778Z,60.05
2019-04-21T01:46:06.717Z,55.03
2019-04-21T01:48:34.252Z,51.10
2019-04-21T01:51:11.526Z,55.35
2019-04-21T01:53:48.346Z,46.55
2019-04-21T01:56:31.821Z,49.63
2019-04-21T01:58:54.016Z,48.55
2019-04-21T02:01:46.244Z,48.58
2019-04-21T02:04:13.987Z,52.35
2019-04-21T02:06:44.446Z,43.73
2019-04-21T02:09:15.266Z,47.50
2019-04-21T02:11:56.505Z,52.93
2019-04-21T02:14:31.106Z,55.50
2019-04-21T02:16:59.289Z,49.77
2019-04-21T02:19:28.734Z,50.63
2019-04-21T02:21:59.573Z,57.40
2019-04-21T02:27:14.908Z,52.13
2019-04-21T02:29:48.654Z,53.25
2019-04-21T02:32:35.705Z,52.43
2019-04-21T02:42:46.311Z,47.38
2019-04-21T02:45:20.885Z,45.60
2019-04-21T02:50:28.280Z,42.62
2019-04-21T02:55:28.981Z,49.70
2019-04-21T02:58:06.124Z,44.05
2019-04-21T03:01:03.269Z,51.98
2019-04-21T03:03:54.995Z,48.58
2019-04-21T03:06:56.372Z,57.58
2019-04-21T03:09:25.953Z,62.98
2019-04-21T03:11:56.072Z,55.03
2019-04-21T03:14:40.814Z,62.08
2019-04-21T03:16:57.706Z,57.35
2019-04-21T03:22:20.966Z,50.52
2019-04-21T03:25:00.951Z,51.45
2019-04-21T03:40:02.549Z,56.75
2019-04-21T03:42:38.839Z,65.37
2019-04-21T03:47:38.336Z,64.82
2019-04-21T03:50:11.088Z,81.90
2019-04-21T03:55:48.750Z,74.82
2019-04-21T03:58:14.836Z,43.98
2019-04-21T04:00:58.278Z,38.55
2019-04-21T04:06:08.024Z,53.02
2019-04-21T04:09:03.527Z,46.25
2019-04-21T04:11:31.575Z,38.30
2019-04-21T04:14:14.253Z,36.30
2019-04-21T04:16:26.955Z,45.65
2019-04-21T04:21:44.254Z,56.33
2019-04-21T04:26:57.815Z,47.08
2019-04-21T04:31:43.905Z,51.33
2019-04-21T04:34:29.149Z,53.10
2019-04-21T04:44:54.276Z,58.13
2019-04-21T04:54:55.461Z,50.95
2019-04-21T05:00:14.307Z,50.40
2019-04-21T05:07:53.894Z,52.70
2019-04-21T05:10:18.235Z,58.15
2019-04-21T05:12:43.837Z,54.63
2019-04-21T05:15:17.871Z,49.25
2019-04-21T05:17:50.672Z,47.20
2019-04-21T05:20:45.977Z,54.20
2019-04-21T05:22:53.284Z,56.83
2019-04-21T05:25:23.685Z,58.50
2019-04-21T05:27:56.371Z,57.27
2019-04-21T05:30:45.036Z,55.30
2019-04-21T05:33:20.512Z,55.43
2019-04-21T05:36:02.055Z,49.80
2019-04-21T05:38:44.878Z,46.40
2019-04-21T05:41:13.088Z,55.15
2019-04-21T05:44:01.927Z,46.83
2019-04-21T05:46:35.631Z,46.28
2019-04-21T05:49:10.518Z,58.17
2019-04-21T05:51:55.716Z,56.18
2019-04-21T05:57:05.920Z,59.38
2019-04-21T05:59:43.621Z,60.88
2019-04-21T06:07:28.855Z,55.25
2019-04-21T06:10:00.125Z,58.45
2019-04-21T06:12:38.156Z,50.75
2019-04-21T06:15:06.995Z,35.03
2019-04-21T06:17:44.654Z,47.62
2019-04-21T06:20:15.382Z,40.40
2019-04-21T06:22:50.612Z,43.00
2019-04-21T06:25:43.157Z,45.58
2019-04-21T06:28:04.729Z,45.95
2019-04-21T06:30:33.269Z,43.63
2019-04-21T06:33:09.941Z,36.05
2019-04-21T06:36:12.675Z,24.55
2019-04-21T06:38:53.856Z,24.90
2019-04-21T06:41:22.752Z,24.02
2019-04-21T06:43:56.345Z,35.70
2019-04-21T06:46:30.947Z,34.63
2019-04-21T06:49:00.259Z,28.07
2019-04-21T06:51:32.285Z,22.75
2019-04-21T06:56:41.279Z,24.57
2019-04-21T06:59:10.938Z,19.30
2019-04-21T07:01:52.637Z,25.48
2019-04-21T07:04:37.758Z,29.92
2019-04-21T07:06:57.496Z,30.02
2019-04-21T07:09:47.451Z,24.67
2019-04-21T07:12:02.281Z,11.33
2019-04-21T07:14:34.622Z,12.18
2019-04-21T07:17:11.367Z,13.72
2019-04-21T07:19:49.975Z,15.75
2019-04-21T07:22:23.034Z,27.00
2019-04-21T07:24:51.897Z,14.60
2019-04-21T07:27:22.304Z,12.25
2019-04-21T07:29:58.504Z,16.37
2019-04-21T07:32:49.741Z,9.55
2019-04-21T07:35:03.643Z,9.00
2019-04-21T07:37:36.616Z,11.65
2019-04-21T07:40:07.730Z,10.95
2019-04-21T07:42:40.078Z,12.33
2019-04-21T07:45:11.711Z,15.93
2019-04-21T07:47:53.099Z,10.32
2019-04-21T07:50:35.043Z,11.90
2019-04-21T07:53:27.678Z,13.60
2019-04-21T07:55:39.237Z,10.23
2019-04-21T07:58:43.787Z,10.15
2019-04-21T08:01:07.756Z,7.78
2019-04-21T08:03:38.934Z,13.45
2019-04-21T08:06:18.739Z,7.78
2019-04-21T08:08:48.830Z,7.70
2019-04-21T08:11:14.879Z,7.97
2019-04-21T08:13:55.089Z,11.25
2019-04-21T08:18:59.824Z,8.70
2019-04-21T08:21:35.456Z,7.72
2019-04-21T08:24:06.191Z,7.80
2019-04-21T08:29:20.793Z,10.93
2019-04-21T08:32:14.564Z,9.15
2019-04-21T08:34:21.492Z,7.30
2019-04-21T08:36:57.571Z,9.68
2019-04-21T08:39:39.514Z,33.08
2019-04-21T08:42:08.476Z,15.48
2019-04-21T08:44:40.268Z,8.98
2019-04-21T08:47:15.470Z,7.28
2019-04-21T08:49:42.829Z,12.63
2019-04-21T08:52:28.384Z,16.50
2019-04-21T08:54:55.785Z,9.65
2019-04-21T08:57:37.695Z,9.40
2019-04-21T09:00:29.598Z,12.37
2019-04-21T09:03:02.398Z,34.75
2019-04-21T09:05:32.578Z,14.03
2019-04-21T09:08:06.650Z,8.33
2019-04-21T09:10:44.433Z,8.65
2019-04-21T09:13:14.841Z,9.50
2019-04-21T09:15:41.627Z,5.75
2019-04-21T09:18:13.398Z,9.08
2019-04-21T09:20:57.634Z,9.75
2019-04-21T09:23:25.653Z,10.05
2019-04-21T09:25:57.445Z,8.08
2019-04-21T09:28:27.257Z,11.38
2019-04-21T09:30:53.507Z,9.85
2019-04-21T09:33:28.048Z,11.43
2019-04-21T09:36:01.202Z,15.98
2019-04-21T09:38:36.033Z,10.10
2019-04-21T09:41:06.711Z,10.75
2019-04-21T09:43:43.870Z,11.88
2019-04-21T09:46:09.827Z,16.75
2019-04-21T09:48:49.783Z,9.05
2019-04-21T09:51:17.741Z,8.45
2019-04-21T09:53:58.339Z,8.98
2019-04-21T09:56:31.525Z,10.88
2019-04-21T09:59:05.555Z,12.30
2019-04-21T10:01:45.109Z,12.88
2019-04-21T10:04:05.868Z,13.78
2019-04-21T10:06:37.811Z,21.95
2019-04-21T10:09:14.157Z,11.55
2019-04-21T10:11:43.864Z,15.03
2019-04-21T10:14:15.615Z,12.88
2019-04-21T10:16:57.250Z,16.27
2019-04-21T10:19:29.715Z,8.08
2019-04-21T10:22:03.966Z,9.88
2019-04-21T10:24:34.554Z,7.30
2019-04-21T10:27:07.298Z,11.55
2019-04-21T10:29:43.207Z,22.00
2019-04-21T10:32:13.548Z,10.90
2019-04-21T10:34:45.321Z,7.03
2019-04-21T10:37:17.121Z,11.80
2019-04-21T10:39:49.613Z,14.10
2019-04-21T10:42:21.513Z,9.08
2019-04-21T10:44:53.188Z,11.75
2019-04-21T10:47:25.048Z,9.45
2019-04-21T10:49:56.606Z,12.68
2019-04-21T10:55:19.160Z,11.63
2019-04-21T10:57:39.955Z,7.22
2019-04-21T11:00:13.937Z,9.15
2019-04-21T11:02:48.699Z,8.68
2019-04-21T11:05:20.826Z,8.88
2019-04-21T11:08:08.115Z,9.15
2019-04-21T11:10:29.776Z,11.20
2019-04-21T11:13:05.879Z,11.40
2019-04-21T11:15:50.785Z,11.08
2019-04-21T11:18:23.967Z,7.65
2019-04-21T11:20:55.676Z,13.22
2019-04-21T11:23:27.476Z,7.40
2019-04-21T11:26:00.129Z,28.87
2019-04-21T11:28:31.811Z,14.80
2019-04-21T11:31:04.753Z,11.88
2019-04-21T11:33:37.600Z,14.98
2019-04-21T11:36:13.377Z,10.05
2019-04-21T11:39:07.383Z,9.38
2019-04-21T11:41:25.645Z,11.43
2019-04-21T11:43:59.107Z,8.68
2019-04-21T11:46:34.240Z,12.00
2019-04-21T11:49:06.398Z,14.10
2019-04-21T11:51:38.025Z,8.50
2019-04-21T11:54:10.835Z,11.10
2019-04-21T11:56:43.218Z,8.55
2019-04-21T11:59:15.545Z,6.70
2019-04-21T12:01:47.666Z,10.72
2019-04-21T12:04:19.204Z,13.85
2019-04-21T12:06:52.874Z,37.75
2019-04-21T12:09:30.705Z,9.75
2019-04-21T12:12:03.399Z,8.83
2019-04-21T12:14:36.307Z,12.25
2019-04-21T12:17:07.967Z,21.90
2019-04-21T12:19:40.787Z,8.83
2019-04-21T12:22:20.138Z,8.38
2019-04-21T12:24:47.036Z,9.35
2019-04-21T12:27:18.532Z,10.05
2019-04-21T12:29:51.519Z,12.30
2019-04-21T12:32:34.023Z,12.55
2019-04-21T12:35:10.040Z,11.15
2019-04-21T12:37:42.793Z,9.85
2019-04-21T12:40:14.835Z,8.80
2019-04-21T12:42:48.318Z,9.25
2019-04-21T12:45:22.000Z,8.65
2019-04-21T12:47:55.531Z,10.13
2019-04-21T12:50:28.230Z,10.25
2019-04-21T12:53:00.116Z,9.20
2019-04-21T12:55:36.629Z,9.93
2019-04-21T12:58:05.549Z,6.85
2019-04-21T13:00:38.866Z,11.03
2019-04-21T13:03:10.375Z,8.00
2019-04-21T13:05:43.331Z,7.20
2019-04-21T13:08:15.472Z,7.85
2019-04-21T13:10:48.446Z,9.65
2019-04-21T13:13:20.065Z,10.28
2019-04-21T13:15:53.661Z,7.22
2019-04-21T13:18:25.318Z,9.35
2019-04-21T13:20:59.339Z,11.20
2019-04-21T13:23:32.110Z,17.27
2019-04-21T13:28:37.516Z,9.63
2019-04-21T13:31:10.350Z,11.45
2019-04-21T13:33:42.415Z,12.00
2019-04-21T13:36:15.700Z,11.43
2019-04-21T13:39:32.730Z,9.20
2019-04-21T13:41:50.469Z,7.80
2019-04-21T13:44:15.622Z,9.68
2019-04-21T13:46:49.004Z,14.03
2019-04-21T13:49:23.367Z,12.10
2019-04-21T13:51:56.215Z,13.40
2019-04-21T13:54:27.814Z,13.78
2019-04-21T13:57:00.671Z,9.18
2019-04-21T13:59:34.303Z,9.73
2019-04-21T14:02:06.863Z,8.05
2019-04-21T14:04:38.434Z,13.40
2019-04-21T14:07:10.128Z,11.35
2019-04-21T14:09:50.020Z,15.45
2019-04-21T14:12:15.024Z,9.38
2019-04-21T14:14:48.273Z,14.33
2019-04-21T14:17:21.330Z,11.15
2019-04-21T14:19:55.002Z,13.20
2019-04-21T14:22:31.717Z,11.65
2019-04-21T14:25:10.759Z,9.85
2019-04-21T14:27:46.998Z,12.85
2019-04-21T14:30:20.534Z,17.17
2019-04-21T14:32:54.085Z,14.73
2019-04-21T14:35:29.534Z,9.30
2019-04-21T14:38:02.706Z,17.30
2019-04-21T14:40:36.716Z,6.65
2019-04-21T14:43:14.163Z,10.88
2019-04-21T14:45:50.502Z,17.80
2019-04-21T14:48:43.048Z,9.40
2019-04-21T14:51:19.070Z,9.13
2019-04-21T14:53:56.338Z,14.00
2019-04-21T14:56:29.357Z,12.20
2019-04-21T14:59:02.628Z,15.98
2019-04-21T15:01:37.723Z,18.07
2019-04-21T15:04:09.897Z,17.65
2019-04-21T15:06:43.313Z,15.03
2019-04-21T15:09:15.364Z,17.27
2019-04-21T15:11:47.703Z,17.75
2019-04-21T15:14:20.123Z,15.10
2019-04-21T15:16:51.836Z,13.05
2019-04-21T15:19:24.584Z,10.50
2019-04-21T15:21:56.709Z,20.85
2019-04-21T15:24:30.016Z,12.53
2019-04-21T15:27:02.948Z,19.35
2019-04-21T15:29:35.018Z,17.17
2019-04-21T15:32:08.182Z,20.02
2019-04-21T15:34:42.385Z,10.88
2019-04-21T15:37:14.054Z,15.72
2019-04-21T15:39:46.880Z,18.12
2019-04-21T15:42:18.657Z,19.37
2019-04-21T15:44:50.614Z,11.57
2019-04-21T15:47:23.982Z,10.45
2019-04-21T15:50:02.807Z,17.05
2019-04-21T15:52:30.050Z,26.50
2019-04-21T15:55:06.186Z,16.05
2019-04-21T15:57:47.034Z,16.67
2019-04-21T16:00:24.722Z,28.97
2019-04-21T16:02:56.726Z,25.15
2019-04-21T16:05:28.657Z,15.53
2019-04-21T16:08:00.363Z,14.78
2019-04-21T16:10:43.057Z,21.68
2019-04-21T16:13:05.879Z,20.52
2019-04-21T16:15:38.657Z,12.95
2019-04-21T16:18:12.048Z,15.00
2019-04-21T16:20:43.973Z,11.18
2019-04-21T16:23:16.183Z,10.93
2019-04-21T16:25:48.679Z,14.58
2019-04-21T16:28:21.539Z,13.62
2019-04-21T16:30:54.338Z,12.95
2019-04-21T16:33:27.124Z,11.85
2019-04-21T16:35:59.815Z,17.02
2019-04-21T16:38:31.546Z,10.85
2019-04-21T16:41:06.944Z,11.73
2019-04-21T16:43:38.124Z,15.72
2019-04-21T16:46:10.793Z,15.48
2019-04-21T16:48:44.177Z,14.58
2019-04-21T16:51:16.426Z,17.23
2019-04-21T16:53:50.449Z,15.18
2019-04-21T16:56:24.772Z,18.77
2019-04-21T16:58:58.884Z,16.57
2019-04-21T17:01:32.297Z,25.45
2019-04-21T17:04:04.635Z,19.35
2019-04-21T17:06:38.313Z,20.95
2019-04-21T17:09:10.673Z,19.32
2019-04-21T17:11:44.765Z,22.30
2019-04-21T17:14:33.136Z,23.62
2019-04-21T17:17:16.038Z,18.05
2019-04-21T17:19:29.452Z,15.08
2019-04-21T17:21:57.514Z,16.97
2019-04-21T17:24:30.534Z,21.07
2019-04-21T17:27:02.858Z,14.30
2019-04-21T17:29:35.051Z,28.27
2019-04-21T17:32:09.350Z,21.75
2019-04-21T17:34:41.038Z,13.72
2019-04-21T17:37:13.067Z,13.13
2019-04-21T17:39:45.074Z,17.52
2019-04-21T17:42:26.501Z,28.40
2019-04-21T17:44:51.243Z,24.02
2019-04-21T17:47:36.381Z,22.70
2019-04-21T17:50:07.778Z,34.70
2019-04-21T17:52:48.836Z,28.42
2019-04-21T17:55:29.831Z,26.75
2019-04-21T17:58:16.294Z,27.73
2019-04-21T18:04:01.614Z,28.07
2019-04-21T18:06:05.351Z,20.82
2019-04-21T18:08:48.349Z,21.85
2019-04-21T18:11:05.998Z,27.45
2019-04-21T18:13:32.741Z,39.48
2019-04-21T18:16:16.179Z,44.58
2019-04-21T18:18:39.046Z,40.35
2019-04-21T18:21:12.512Z,46.40
2019-04-21T18:24:00.724Z,48.30
2019-04-21T18:26:39.882Z,40.28
2019-04-21T18:29:01.107Z,60.63
2019-04-21T18:31:39.804Z,64.50
2019-04-21T18:34:27.374Z,60.80
2019-04-21T18:37:06.534Z,51.33
2019-04-21T18:39:52.478Z,62.15
2019-04-21T18:48:12.483Z,56.65
2019-04-21T18:50:50.942Z,58.35
2019-04-21T18:53:50.403Z,54.55
2019-04-21T18:56:11.222Z,56.55
2019-04-21T18:58:42.515Z,57.58
2019-04-21T19:01:20.717Z,62.93
2019-04-21T19:03:52.202Z,58.65
2019-04-21T19:06:40.571Z,62.70
2019-04-21T19:09:11.773Z,67.78
2019-04-21T19:11:48.035Z,73.17
2019-04-21T19:14:40.084Z,66.20
2019-04-21T19:17:11.082Z,62.38
2019-04-21T19:22:04.881Z,54.35
2019-04-21T19:24:33.200Z,61.25
2019-04-21T19:27:12.067Z,64.32
2019-04-21T19:29:54.006Z,64.12
2019-04-21T19:32:21.494Z,58.10
2019-04-21T19:34:36.436Z,56.58
2019-04-21T19:37:11.572Z,50.58
2019-04-21T19:39:53.928Z,51.75
2019-04-21T19:42:22.658Z,47.55
2019-04-21T19:45:03.306Z,47.53
2019-04-21T19:47:38.930Z,51.55
2019-04-21T19:50:10.806Z,44.15
2019-04-21T19:52:39.909Z,53.63
2019-04-21T19:55:00.979Z,54.73
2019-04-21T19:57:34.691Z,57.83
2019-04-21T20:00:10.118Z,51.80
2019-04-21T20:02:43.007Z,61.65
2019-04-21T20:05:24.023Z,44.88
2019-04-21T20:08:05.471Z,45.05
2019-04-21T20:10:39.721Z,43.38
2019-04-21T20:13:14.491Z,39.55
2019-04-21T20:15:51.082Z,42.27
2019-04-21T20:18:13.973Z,38.88
2019-04-21T20:20:35.229Z,42.88
2019-04-21T20:23:15.012Z,37.90
2019-04-21T20:25:47.417Z,45.55
2019-04-21T20:28:29.437Z,41.55
2019-04-21T20:31:09.690Z,43.92
2019-04-21T20:36:15.008Z,38.25
2019-04-21T20:38:35.813Z,38.17
2019-04-21T20:41:16.125Z,44.90
2019-04-21T20:43:54.231Z,43.70
2019-04-21T20:46:24.931Z,44.98
2019-04-21T20:48:52.326Z,39.03
2019-04-21T20:51:28.399Z,56.48
2019-04-21T20:54:03.182Z,36.15
2019-04-21T20:56:40.949Z,42.27
2019-04-21T20:59:07.503Z,45.67
2019-04-21T21:01:43.362Z,42.60
2019-04-21T21:04:13.793Z,43.28
2019-04-21T21:06:48.345Z,47.00
2019-04-21T21:09:18.583Z,42.15
2019-04-21T21:12:20.368Z,41.60
2019-04-21T21:14:31.970Z,46.58
2019-04-21T21:17:13.105Z,51.83
2019-04-21T21:19:48.723Z,62.83
2019-04-21T21:22:07.690Z,48.68
2019-04-21T21:24:49.700Z,53.50
2019-04-21T21:27:19.592Z,49.55
2019-04-21T21:29:50.214Z,50.65
2019-04-21T21:32:25.859Z,51.85
2019-04-21T21:34:59.645Z,50.65
2019-04-21T21:37:39.372Z,51.02
2019-04-21T21:40:12.687Z,47.83
2019-04-21T21:42:27.883Z,52.75
2019-04-21T21:45:06.121Z,53.45
2019-04-21T21:47:49.907Z,52.20
2019-04-21T21:50:11.069Z,53.60
2019-04-21T21:52:47.785Z,48.75
2019-04-21T21:55:11.928Z,42.25
2019-04-21T21:57:50.386Z,56.85
2019-04-21T22:00:23.998Z,46.80
2019-04-21T22:03:03.541Z,57.38
2019-04-21T22:05:42.099Z,62.20
2019-04-21T22:08:04.699Z,57.25
2019-04-21T22:10:36.977Z,59.15
2019-04-21T22:13:14.105Z,55.92
2019-04-21T22:15:43.579Z,59.98
2019-04-21T22:18:34.977Z,59.00
2019-04-21T22:21:03.629Z,55.20
2019-04-21T22:23:29.529Z,46.80
2019-04-21T22:25:57.585Z,55.63
2019-04-21T22:28:29.697Z,55.05
2019-04-21T22:31:05.617Z,53.20
2019-04-21T22:33:41.950Z,49.08
2019-04-21T22:36:20.992Z,52.35
2019-04-21T22:38:59.908Z,48.13
2019-04-21T22:41:26.570Z,46.88
2019-04-21T22:43:51.653Z,40.08
2019-04-21T22:46:22.376Z,40.17
2019-04-21T22:48:59.520Z,37.55
2019-04-21T22:51:35.800Z,46.40
2019-04-21T22:54:01.469Z,44.50
2019-04-21T22:56:34.122Z,42.15
2019-04-21T22:59:10.863Z,29.55
2019-04-21T23:01:42.478Z,40.30
2019-04-21T23:04:15.846Z,38.15
2019-04-21T23:06:55.812Z,47.85
2019-04-21T23:09:22.545Z,41.05
2019-04-21T23:11:57.639Z,43.85
2019-04-21T23:14:27.979Z,44.98
2019-04-21T23:17:23.160Z,39.08
2019-04-21T23:19:46.030Z,45.17
2019-04-21T23:22:21.477Z,35.83
2019-04-21T23:25:05.074Z,41.02
2019-04-21T23:27:26.349Z,41.42
2019-04-21T23:30:13.224Z,40.95
2019-04-21T23:32:34.147Z,37.55
2019-04-21T23:34:55.416Z,37.23
2019-04-21T23:37:28.974Z,33.80
2019-04-21T23:40:07.612Z,33.28
2019-04-21T23:42:37.120Z,39.42
2019-04-21T23:45:08.732Z,33.40
2019-04-21T23:47:51.655Z,31.48
2019-04-21T23:50:29.463Z,36.38
2019-04-21T23:52:49.749Z,35.58
2019-04-21T23:55:23.112Z,38.85
2019-04-21T23:58:02.312Z,34.18
